Time;durP1;ratioP1;P1;durP2;ratioP2;P2;SDS_P1;SDS_P2;PMS_P1;PMS_P2;Temp;Humidity;BMP_temperature;BMP_pressure;BME280_temperature;BME280_humidity;BME280_pressure;Samples;Min_cycle;Max_cycle;Signal;HPM_P1;HPM_P2
2023/07/20 00:01:47;;;;;;;57.10;2.00;;;;;;;;;;4991594;28;20471;-72
2023/07/20 00:04:15;;;;;;;56.77;2.00;;;;;;;;;;4991870;28;20450;-72
2023/07/20 00:06:44;;;;;;;56.80;2.20;;;;;;;;;;4991836;28;20455;-71
2023/07/20 00:09:11;;;;;;;57.00;2.60;;;;;;;;;;4991578;28;20453;-72
2023/07/20 00:11:39;;;;;;;56.87;1.97;;;;;;;;;;4991450;28;20469;-72
2023/07/20 00:14:06;;;;;;;56.67;2.13;;;;;;;;;;4991794;28;20450;-72
2023/07/20 00:16:33;;;;;;;56.37;2.10;;;;;;;;;;4991642;28;20443;-72
2023/07/20 00:19:00;;;;;;;56.70;2.20;;;;;;;;;;4991543;28;20491;-72
2023/07/20 00:21:27;;;;;;;56.80;2.20;;;;;;;;;;4991222;28;20482;-72
2023/07/20 00:23:56;;;;;;;56.87;2.20;;;;;;;;;;4991464;28;20847;-71
2023/07/20 00:26:23;;;;;;;57.00;2.57;;;;;;;;;;4991564;28;20453;-71
2023/07/20 00:28:51;;;;;;;56.60;2.00;;;;;;;;;;4991514;28;20948;-72
2023/07/20 00:31:18;;;;;;;56.90;2.23;;;;;;;;;;4991267;28;20458;-72
2023/07/20 00:33:45;;;;;;;56.87;2.40;;;;;;;;;;4991522;28;20455;-72
2023/07/20 00:36:12;;;;;;;56.70;2.20;;;;;;;;;;4991301;28;20451;-72
2023/07/20 00:38:40;;;;;;;56.60;2.00;;;;;;;;;;4991196;28;20947;-72
2023/07/20 00:41:09;;;;;;;56.90;2.10;;;;;;;;;;4991183;28;20504;-71
2023/07/20 00:43:36;;;;;;;56.90;2.10;;;;;;;;;;4994294;28;20474;-72
2023/07/20 00:46:03;;;;;;;58.23;2.60;;;;;;;;;;4994941;28;20963;-72
2023/07/20 00:48:30;;;;;;;56.67;2.10;;;;;;;;;;4994868;28;20461;-72
2023/07/20 00:50:58;;;;;;;56.67;2.20;;;;;;;;;;4994563;28;20982;-72
2023/07/20 00:53:25;;;;;;;56.87;2.40;;;;;;;;;;4995006;28;20517;-72
2023/07/20 00:55:52;;;;;;;56.87;2.03;;;;;;;;;;4994829;28;20451;-72
2023/07/20 00:58:21;;;;;;;56.77;2.10;;;;;;;;;;4994793;28;20493;-72
2023/07/20 01:00:48;;;;;;;57.10;2.30;;;;;;;;;;4993239;28;20538;-72
2023/07/20 01:03:15;;;;;;;56.80;2.40;;;;;;;;;;4990766;28;20565;-72
2023/07/20 01:05:44;;;;;;;58.03;2.67;;;;;;;;;;4994878;28;20497;-72
2023/07/20 01:08:13;;;;;;;56.57;2.03;;;;;;;;;;4994827;28;20448;-72
2023/07/20 01:10:41;;;;;;;56.67;2.00;;;;;;;;;;4994611;28;20473;-72
2023/07/20 01:13:09;;;;;;;57.77;3.03;;;;;;;;;;4994490;28;20498;-72
2023/07/20 01:15:38;;;;;;;56.67;2.10;;;;;;;;;;4994460;28;20554;-71
2023/07/20 01:18:05;;;;;;;56.73;2.10;;;;;;;;;;4994259;28;20487;-72
2023/07/20 01:20:33;;;;;;;56.57;2.33;;;;;;;;;;4994339;28;20458;-72
2023/07/20 01:23:28;;;;;;;56.70;2.10;;;;;;;;;;4994443;28;20498;-72
2023/07/20 01:26:04;;;;;;;56.40;2.00;;;;;;;;;;4994313;28;20812;-72
2023/07/20 01:28:37;;;;;;;56.77;2.00;;;;;;;;;;4994086;28;20454;-71
2023/07/20 01:31:16;;;;;;;56.67;2.13;;;;;;;;;;4994091;28;20457;-72
2023/07/20 01:33:44;;;;;;;56.77;2.27;;;;;;;;;;4994399;28;20455;-72
2023/07/20 01:36:12;;;;;;;56.90;2.20;;;;;;;;;;4994145;28;20461;-71
2023/07/20 01:38:39;;;;;;;56.07;1.90;;;;;;;;;;4993912;28;20479;-72
2023/07/20 01:41:06;;;;;;;56.50;1.93;;;;;;;;;;4993549;28;20944;-71
2023/07/20 01:43:34;;;;;;;56.60;2.00;;;;;;;;;;4992512;28;20470;-72
2023/07/20 01:46:01;;;;;;;56.87;2.23;;;;;;;;;;4993841;28;21001;-72
2023/07/20 01:48:29;;;;;;;56.80;2.07;;;;;;;;;;4993542;28;20447;-72
2023/07/20 01:50:57;;;;;;;56.10;2.07;;;;;;;;;;4993650;28;20471;-72
2023/07/20 01:53:25;;;;;;;56.67;2.30;;;;;;;;;;4993908;28;20455;-72
2023/07/20 01:55:54;;;;;;;56.47;2.00;;;;;;;;;;4993698;28;20959;-72
2023/07/20 01:58:21;;;;;;;57.47;2.83;;;;;;;;;;4993651;28;20490;-72
2023/07/20 02:00:48;;;;;;;56.67;1.87;;;;;;;;;;4993191;28;20465;-72
2023/07/20 02:03:15;;;;;;;57.00;2.53;;;;;;;;;;4993402;28;20471;-72
2023/07/20 02:05:45;;;;;;;56.83;2.20;;;;;;;;;;4993630;28;20459;-72
2023/07/20 02:08:12;;;;;;;56.80;2.03;;;;;;;;;;4993313;28;20959;-71
2023/07/20 02:10:39;;;;;;;56.87;2.37;;;;;;;;;;4993517;28;20455;-72
2023/07/20 02:13:06;;;;;;;56.70;2.20;;;;;;;;;;4993191;28;20999;-71
2023/07/20 02:15:33;;;;;;;56.90;2.30;;;;;;;;;;4993131;28;20450;-72
2023/07/20 02:18:00;;;;;;;56.87;2.40;;;;;;;;;;4993307;28;20451;-72
2023/07/20 02:20:27;;;;;;;56.87;2.20;;;;;;;;;;4993205;28;20826;-72
2023/07/20 02:22:56;;;;;;;56.77;2.00;;;;;;;;;;4993084;28;20537;-71
2023/07/20 02:25:23;;;;;;;57.10;2.40;;;;;;;;;;4993196;28;20450;-72
2023/07/20 02:27:50;;;;;;;56.80;2.30;;;;;;;;;;4992994;28;20969;-70
2023/07/20 02:30:17;;;;;;;57.20;3.47;;;;;;;;;;4992729;28;20486;-71
2023/07/20 02:32:45;;;;;;;56.67;2.20;;;;;;;;;;4993097;28;20510;-71
2023/07/20 02:35:12;;;;;;;56.73;2.30;;;;;;;;;;4993093;28;20557;-72
2023/07/20 02:37:39;;;;;;;56.63;2.07;;;;;;;;;;4992844;28;20453;-72
2023/07/20 02:40:09;;;;;;;56.57;2.30;;;;;;;;;;4992624;28;20751;-72
2023/07/20 02:42:36;;;;;;;56.87;2.20;;;;;;;;;;4992528;28;20878;-71
2023/07/20 02:45:04;;;;;;;56.77;2.37;;;;;;;;;;4992802;28;20474;-71
2023/07/20 02:47:31;;;;;;;57.00;1.97;;;;;;;;;;4992813;28;20459;-71
2023/07/20 02:49:58;;;;;;;57.20;2.43;;;;;;;;;;4992740;28;20444;-72
2023/07/20 02:52:25;;;;;;;56.87;2.30;;;;;;;;;;4992464;28;20471;-70
2023/07/20 02:54:52;;;;;;;56.67;2.40;;;;;;;;;;4992649;28;20459;-71
2023/07/20 02:57:21;;;;;;;57.27;2.50;;;;;;;;;;4992390;28;20823;-71
2023/07/20 02:59:48;;;;;;;56.73;2.10;;;;;;;;;;4991959;28;20505;-71
2023/07/20 03:02:15;;;;;;;56.47;2.10;;;;;;;;;;4992190;28;20485;-72
2023/07/20 03:04:42;;;;;;;56.90;2.40;;;;;;;;;;4991882;28;20447;-71
2023/07/20 03:07:09;;;;;;;56.70;2.17;;;;;;;;;;4984547;28;20485;-72
2023/07/20 03:09:36;;;;;;;57.17;2.63;;;;;;;;;;4992236;28;20455;-72
2023/07/20 03:12:04;;;;;;;56.90;2.40;;;;;;;;;;4992266;28;20479;-72
2023/07/20 03:14:33;;;;;;;56.73;2.30;;;;;;;;;;4992504;28;20851;-71
2023/07/20 03:17:00;;;;;;;56.53;2.20;;;;;;;;;;4992318;28;20458;-71
2023/07/20 03:19:28;;;;;;;56.77;2.30;;;;;;;;;;4992193;28;20487;-72
2023/07/20 03:21:55;;;;;;;56.67;2.10;;;;;;;;;;4991761;28;20513;-72
2023/07/20 03:24:23;;;;;;;56.90;2.30;;;;;;;;;;4991982;28;20455;-71
2023/07/20 03:26:50;;;;;;;56.70;2.17;;;;;;;;;;4992073;28;20455;-71
2023/07/20 03:29:17;;;;;;;57.20;2.47;;;;;;;;;;4992198;28;20838;-71
2023/07/20 03:31:46;;;;;;;57.00;2.30;;;;;;;;;;4991575;28;20482;-72
2023/07/20 03:34:13;;;;;;;56.77;2.10;;;;;;;;;;4991823;28;20966;-72
2023/07/20 03:36:40;;;;;;;57.20;2.20;;;;;;;;;;4991536;28;20549;-72
2023/07/20 03:39:07;;;;;;;56.83;2.23;;;;;;;;;;4991841;28;20490;-72
2023/07/20 03:41:34;;;;;;;56.87;2.27;;;;;;;;;;4991668;28;20482;-71
2023/07/20 03:44:01;;;;;;;56.57;2.30;;;;;;;;;;4991772;28;20509;-72
2023/07/20 03:46:28;;;;;;;57.00;2.27;;;;;;;;;;4991800;28;20462;-70
2023/07/20 03:48:57;;;;;;;56.97;2.30;;;;;;;;;;4991803;28;20443;-72
2023/07/20 03:51:24;;;;;;;56.90;2.60;;;;;;;;;;4991241;28;20474;-72
2023/07/20 03:53:51;;;;;;;56.70;2.30;;;;;;;;;;4991722;28;20457;-71
2023/07/20 03:56:18;;;;;;;56.87;2.43;;;;;;;;;;4991924;28;20925;-72
2023/07/20 03:58:45;;;;;;;56.97;2.30;;;;;;;;;;4991749;28;20458;-71
2023/07/20 04:01:13;;;;;;;57.13;2.60;;;;;;;;;;4991380;28;20462;-71
2023/07/20 04:03:40;;;;;;;56.90;2.20;;;;;;;;;;4991738;28;20898;-71
2023/07/20 04:06:08;;;;;;;57.03;2.50;;;;;;;;;;4991463;28;20475;-72
2023/07/20 04:08:35;;;;;;;56.87;2.27;;;;;;;;;;4991575;28;20939;-70
2023/07/20 04:11:03;;;;;;;56.90;2.17;;;;;;;;;;4991371;28;20461;-71
2023/07/20 04:13:34;;;;;;;56.93;2.30;;;;;;;;;;4991509;28;20951;-71
2023/07/20 04:16:02;;;;;;;56.87;2.50;;;;;;;;;;4991467;28;20447;-71
2023/07/20 04:18:29;;;;;;;56.67;2.23;;;;;;;;;;4994341;28;20532;-71
2023/07/20 04:20:56;;;;;;;56.63;2.30;;;;;;;;;;4995225;28;20490;-71
2023/07/20 04:23:25;;;;;;;57.00;2.30;;;;;;;;;;4995492;28;20518;-71
2023/07/20 04:25:52;;;;;;;57.00;2.37;;;;;;;;;;4995366;28;20514;-71
2023/07/20 04:28:19;;;;;;;56.87;2.37;;;;;;;;;;4995334;28;20476;-71
2023/07/20 04:30:46;;;;;;;57.20;2.57;;;;;;;;;;4995034;28;20458;-71
2023/07/20 04:33:13;;;;;;;56.77;2.33;;;;;;;;;;4995234;28;20821;-71
2023/07/20 04:35:47;;;;;;;58.47;2.57;;;;;;;;;;4995582;28;20455;-71
2023/07/20 04:38:17;;;;;;;56.70;2.10;;;;;;;;;;4994880;28;20455;-71
2023/07/20 04:40:45;;;;;;;56.77;2.30;;;;;;;;;;4994697;28;20486;-70
2023/07/20 04:43:12;;;;;;;56.73;2.17;;;;;;;;;;4994765;28;20471;-71
2023/07/20 04:45:39;;;;;;;56.73;2.10;;;;;;;;;;4994802;28;20947;-71
2023/07/20 04:48:08;;;;;;;56.80;2.27;;;;;;;;;;4995146;28;20455;-71
2023/07/20 04:50:35;;;;;;;57.10;2.80;;;;;;;;;;4994756;28;20450;-71
2023/07/20 04:53:03;;;;;;;56.67;2.27;;;;;;;;;;4994774;28;20489;-71
2023/07/20 04:55:30;;;;;;;57.00;2.20;;;;;;;;;;4994727;28;20553;-71
2023/07/20 04:57:59;;;;;;;56.90;2.40;;;;;;;;;;4994687;28;20943;-71
2023/07/20 05:00:26;;;;;;;56.90;2.10;;;;;;;;;;4993696;28;20487;-71
2023/07/20 05:02:53;;;;;;;56.63;2.27;;;;;;;;;;4994602;28;20510;-72
2023/07/20 05:05:20;;;;;;;56.77;2.30;;;;;;;;;;4994527;28;20462;-71
2023/07/20 05:07:47;;;;;;;57.67;3.70;;;;;;;;;;4994966;28;20819;-71
2023/07/20 05:10:15;;;;;;;56.73;2.40;;;;;;;;;;4995133;28;20446;-71
2023/07/20 05:12:42;;;;;;;56.70;2.20;;;;;;;;;;4994344;28;20534;-70
2023/07/20 05:15:11;;;;;;;56.43;2.10;;;;;;;;;;4994614;28;20451;-71
2023/07/20 05:17:39;;;;;;;56.67;2.17;;;;;;;;;;4994841;28;20469;-71
2023/07/20 05:20:06;;;;;;;56.90;2.60;;;;;;;;;;4994772;28;20482;-72
2023/07/20 05:22:33;;;;;;;56.87;2.17;;;;;;;;;;4995014;28;20467;-72
2023/07/20 05:25:01;;;;;;;56.57;2.10;;;;;;;;;;4994972;28;20466;-72
2023/07/20 05:27:28;;;;;;;56.67;2.00;;;;;;;;;;4995238;28;20451;-72
2023/07/20 05:29:55;;;;;;;56.50;2.23;;;;;;;;;;4994720;28;20447;-72
2023/07/20 05:32:23;;;;;;;56.70;2.30;;;;;;;;;;4994629;28;20494;-72
2023/07/20 05:34:54;;;;;;;56.37;2.10;;;;;;;;;;4995079;28;20456;-72
2023/07/20 05:37:21;;;;;;;56.70;2.10;;;;;;;;;;4994698;28;20561;-72
2023/07/20 05:39:48;;;;;;;56.57;2.50;;;;;;;;;;4994315;28;20489;-72
2023/07/20 05:42:15;;;;;;;56.70;2.30;;;;;;;;;;4994415;28;20471;-73
2023/07/20 05:44:42;;;;;;;56.50;2.20;;;;;;;;;;4994909;28;20474;-72
2023/07/20 05:47:09;;;;;;;57.00;2.20;;;;;;;;;;4994163;28;20451;-73
2023/07/20 05:49:38;;;;;;;57.20;2.30;;;;;;;;;;4995339;28;20518;-72
2023/07/20 05:52:05;;;;;;;56.53;1.90;;;;;;;;;;4994291;28;20477;-73
2023/07/20 05:54:32;;;;;;;57.20;2.50;;;;;;;;;;4994204;28;20453;-72
2023/07/20 05:56:59;;;;;;;56.50;2.07;;;;;;;;;;4993969;28;20446;-73
2023/07/20 05:59:29;;;;;;;56.43;2.33;;;;;;;;;;4994230;28;20477;-72
2023/07/20 06:01:56;;;;;;;56.33;2.20;;;;;;;;;;4993987;28;20541;-73
2023/07/20 06:04:23;;;;;;;56.27;1.83;;;;;;;;;;4993920;28;20461;-73
2023/07/20 06:06:52;;;;;;;56.57;2.33;;;;;;;;;;4993966;28;21084;-72
2023/07/20 06:09:19;;;;;;;56.90;2.20;;;;;;;;;;4994334;28;20459;-72
2023/07/20 06:11:46;;;;;;;56.63;1.90;;;;;;;;;;4993822;28;20477;-73
2023/07/20 06:14:13;;;;;;;57.00;2.30;;;;;;;;;;4993942;28;20457;-72
2023/07/20 06:16:40;;;;;;;56.50;1.90;;;;;;;;;;4993103;28;20545;-72
2023/07/20 06:19:07;;;;;;;56.60;1.97;;;;;;;;;;4994401;28;20457;-72
2023/07/20 06:21:34;;;;;;;56.77;2.40;;;;;;;;;;4993409;28;20873;-73
2023/07/20 06:24:03;;;;;;;56.53;2.10;;;;;;;;;;4993720;28;20455;-72
2023/07/20 06:26:30;;;;;;;56.53;2.10;;;;;;;;;;4993643;28;20450;-73
2023/07/20 06:28:58;;;;;;;56.17;2.00;;;;;;;;;;4993613;28;20455;-72
2023/07/20 06:31:25;;;;;;;56.70;2.20;;;;;;;;;;4992794;28;20471;-73
2023/07/20 06:33:52;;;;;;;56.50;1.97;;;;;;;;;;4992837;28;20462;-73
2023/07/20 06:36:19;;;;;;;56.50;1.90;;;;;;;;;;4993117;28;20466;-74
2023/07/20 06:38:46;;;;;;;57.23;2.57;;;;;;;;;;4993192;28;20462;-74
2023/07/20 06:41:15;;;;;;;56.90;2.83;;;;;;;;;;4991864;28;20487;-72
2023/07/20 06:43:42;;;;;;;56.57;1.80;;;;;;;;;;4992981;28;20466;-73
2023/07/20 06:46:09;;;;;;;56.17;2.00;;;;;;;;;;4993102;28;20469;-74
2023/07/20 06:48:36;;;;;;;56.13;2.20;;;;;;;;;;4992273;28;20741;-74
2023/07/20 06:51:03;;;;;;;55.77;1.90;;;;;;;;;;4992333;28;20447;-74
2023/07/20 06:53:30;;;;;;;55.90;1.80;;;;;;;;;;4992907;28;20549;-74
2023/07/20 06:55:58;;;;;;;56.57;1.83;;;;;;;;;;4993015;28;20754;-74
2023/07/20 06:58:26;;;;;;;56.47;1.90;;;;;;;;;;4992624;28;20830;-74
2023/07/20 07:00:53;;;;;;;56.90;2.63;;;;;;;;;;4991837;28;20832;-76
2023/07/20 07:03:21;;;;;;;56.43;2.20;;;;;;;;;;4992796;28;20467;-73
2023/07/20 07:05:48;;;;;;;56.30;1.93;;;;;;;;;;4991910;28;20470;-73
2023/07/20 07:08:15;;;;;;;56.77;2.10;;;;;;;;;;4991391;28;20978;-73
2023/07/20 07:10:43;;;;;;;57.00;2.13;;;;;;;;;;4992444;28;20443;-73
2023/07/20 07:13:10;;;;;;;56.27;1.80;;;;;;;;;;4992525;28;20486;-73
2023/07/20 07:15:38;;;;;;;56.37;1.83;;;;;;;;;;4992121;28;20462;-73
2023/07/20 07:18:05;;;;;;;56.60;2.00;;;;;;;;;;4992513;28;20452;-73
2023/07/20 07:20:32;;;;;;;56.40;1.90;;;;;;;;;;4992463;28;20494;-72
2023/07/20 07:23:00;;;;;;;56.60;1.80;;;;;;;;;;4992351;28;20471;-72
2023/07/20 07:25:28;;;;;;;56.37;1.90;;;;;;;;;;4992089;28;20562;-73
2023/07/20 07:27:56;;;;;;;56.17;2.33;;;;;;;;;;4992361;28;20450;-73
2023/07/20 07:30:23;;;;;;;55.77;1.93;;;;;;;;;;4992290;28;20454;-73
2023/07/20 07:32:52;;;;;;;56.33;1.80;;;;;;;;;;4992168;28;20471;-73
2023/07/20 07:35:19;;;;;;;56.67;2.27;;;;;;;;;;4992050;28;20458;-73
2023/07/20 07:37:46;;;;;;;56.27;2.20;;;;;;;;;;4992608;28;20443;-74
2023/07/20 07:40:14;;;;;;;56.27;1.90;;;;;;;;;;4991991;28;20566;-73
2023/07/20 07:42:41;;;;;;;56.60;2.10;;;;;;;;;;4991814;28;20479;-73
2023/07/20 07:45:09;;;;;;;56.50;2.10;;;;;;;;;;4992513;28;20473;-73
2023/07/20 07:47:36;;;;;;;56.40;1.87;;;;;;;;;;4993342;28;20458;-73
2023/07/20 07:50:05;;;;;;;56.30;1.90;;;;;;;;;;4992127;28;20493;-72
2023/07/20 07:52:32;;;;;;;57.00;2.00;;;;;;;;;;4992170;28;20473;-72
2023/07/20 07:55:00;;;;;;;56.70;2.00;;;;;;;;;;4992321;28;20453;-73
2023/07/20 07:57:27;;;;;;;56.17;1.90;;;;;;;;;;4992224;28;20468;-74
2023/07/20 07:59:54;;;;;;;56.37;2.37;;;;;;;;;;4991904;28;20947;-73
2023/07/20 08:02:21;;;;;;;57.20;2.67;;;;;;;;;;4991586;28;20466;-73
2023/07/20 08:04:51;;;;;;;56.40;2.00;;;;;;;;;;4992301;28;20454;-72
2023/07/20 08:07:19;;;;;;;56.30;2.30;;;;;;;;;;4991745;28;20517;-72
2023/07/20 08:09:46;;;;;;;56.37;2.03;;;;;;;;;;4991626;28;20827;-73
2023/07/20 08:12:14;;;;;;;55.87;1.90;;;;;;;;;;4991583;28;20477;-74
2023/07/20 08:14:41;;;;;;;56.70;2.03;;;;;;;;;;4991904;28;20455;-73
2023/07/20 08:17:08;;;;;;;56.90;2.27;;;;;;;;;;4991703;28;20463;-72
2023/07/20 08:19:37;;;;;;;56.73;1.77;;;;;;;;;;4993650;28;21061;-74
2023/07/20 08:22:04;;;;;;;58.10;2.60;;;;;;;;;;4991284;28;20549;-73
2023/07/20 08:24:33;;;;;;;56.70;1.93;;;;;;;;;;4991743;28;20828;-74
2023/07/20 08:27:00;;;;;;;56.50;2.00;;;;;;;;;;4991724;28;20455;-74
2023/07/20 08:29:27;;;;;;;55.97;1.80;;;;;;;;;;4992136;28;20478;-74
2023/07/20 08:31:54;;;;;;;56.50;1.83;;;;;;;;;;4991267;28;20467;-74
2023/07/20 08:34:21;;;;;;;56.17;2.30;;;;;;;;;;4991718;28;20450;-74
2023/07/20 08:36:48;;;;;;;56.30;1.90;;;;;;;;;;4991410;28;20943;-74
2023/07/20 08:39:16;;;;;;;57.20;3.13;;;;;;;;;;4991881;28;20457;-74
2023/07/20 08:41:45;;;;;;;56.77;2.30;;;;;;;;;;4991152;28;20495;-74
2023/07/20 08:44:12;;;;;;;56.47;1.80;;;;;;;;;;4991587;28;20846;-74
2023/07/20 08:46:39;;;;;;;56.17;2.00;;;;;;;;;;4991650;28;20890;-74
2023/07/20 08:49:07;;;;;;;56.17;1.90;;;;;;;;;;4991362;28;20455;-74
2023/07/20 08:51:35;;;;;;;55.87;1.80;;;;;;;;;;4990945;28;20475;-74
2023/07/20 08:54:02;;;;;;;56.23;2.20;;;;;;;;;;4991605;28;20457;-73
2023/07/20 08:56:29;;;;;;;55.97;2.10;;;;;;;;;;4991365;28;20973;-74
2023/07/20 08:58:58;;;;;;;56.10;2.00;;;;;;;;;;4991255;28;20832;-74
2023/07/20 09:01:26;;;;;;;56.60;3.00;;;;;;;;;;4991009;28;20569;-73
2023/07/20 09:03:53;;;;;;;56.40;2.00;;;;;;;;;;4993111;28;20966;-74
2023/07/20 09:06:20;;;;;;;56.47;1.90;;;;;;;;;;4994904;28;20461;-74
2023/07/20 09:08:47;;;;;;;56.80;2.00;;;;;;;;;;4994661;28;20451;-74
2023/07/20 09:11:15;;;;;;;56.13;2.10;;;;;;;;;;4994729;28;20509;-74
2023/07/20 09:13:42;;;;;;;57.03;2.30;;;;;;;;;;4994935;28;20940;-73
2023/07/20 09:16:10;;;;;;;56.17;1.70;;;;;;;;;;4994498;28;20451;-74
2023/07/20 09:18:38;;;;;;;56.07;1.77;;;;;;;;;;4994461;28;20983;-74
2023/07/20 09:21:06;;;;;;;56.20;2.00;;;;;;;;;;4994650;28;20533;-74
2023/07/20 09:23:34;;;;;;;56.20;1.70;;;;;;;;;;4994785;28;20518;-74
2023/07/20 09:26:01;;;;;;;57.10;1.93;;;;;;;;;;4994507;28;20834;-73
2023/07/20 09:28:29;;;;;;;56.60;2.33;;;;;;;;;;4994264;28;20453;-74
2023/07/20 09:30:58;;;;;;;56.17;1.80;;;;;;;;;;4994114;28;20450;-73
2023/07/20 09:33:26;;;;;;;56.17;1.93;;;;;;;;;;4994392;28;20475;-74
2023/07/20 09:35:53;;;;;;;56.57;2.20;;;;;;;;;;4994305;28;20447;-74
2023/07/20 09:38:20;;;;;;;55.73;1.90;;;;;;;;;;4994203;28;20458;-74
2023/07/20 09:40:48;;;;;;;56.30;2.20;;;;;;;;;;4994054;28;20487;-74
2023/07/20 09:43:17;;;;;;;57.13;2.03;;;;;;;;;;4993850;28;20487;-73
2023/07/20 09:45:44;;;;;;;56.17;2.07;;;;;;;;;;4994011;28;20462;-74
2023/07/20 09:48:12;;;;;;;56.47;2.00;;;;;;;;;;4994501;28;20447;-74
2023/07/20 09:50:44;;;;;;;56.20;1.80;;;;;;;;;;4993810;28;20530;-74
2023/07/20 09:53:14;;;;;;;56.17;1.80;;;;;;;;;;4993925;28;20466;-73
2023/07/20 09:55:42;;;;;;;55.97;1.70;;;;;;;;;;4993880;28;20502;-74
2023/07/20 09:58:10;;;;;;;56.57;1.93;;;;;;;;;;4993812;28;20457;-73
2023/07/20 10:00:38;;;;;;;56.30;1.90;;;;;;;;;;4993542;28;20459;-75
2023/07/20 10:03:05;;;;;;;56.60;2.10;;;;;;;;;;4988222;28;20483;-71
2023/07/20 10:05:34;;;;;;;56.10;1.87;;;;;;;;;;4993773;28;20457;-72
2023/07/20 10:08:05;;;;;;;56.10;1.70;;;;;;;;;;4993927;28;20800;-72
2023/07/20 10:10:33;;;;;;;56.03;1.60;;;;;;;;;;4993254;28;20887;-71
2023/07/20 10:13:02;;;;;;;56.27;1.80;;;;;;;;;;4993680;28;20537;-72
2023/07/20 10:15:31;;;;;;;55.77;1.80;;;;;;;;;;4992559;28;20457;-72
2023/07/20 10:18:01;;;;;;;56.30;1.80;;;;;;;;;;4993763;28;20474;-72
2023/07/20 10:20:28;;;;;;;56.37;1.80;;;;;;;;;;4993231;28;20455;-72
2023/07/20 10:22:57;;;;;;;56.27;1.80;;;;;;;;;;4993402;28;20491;-72
2023/07/20 10:25:26;;;;;;;55.93;1.70;;;;;;;;;;4993204;28;20526;-72
2023/07/20 10:27:53;;;;;;;56.20;1.60;;;;;;;;;;4993364;28;20454;-73
2023/07/20 10:30:20;;;;;;;56.03;1.80;;;;;;;;;;4993150;28;20455;-71
2023/07/20 10:32:48;;;;;;;56.20;1.70;;;;;;;;;;4993166;28;20527;-72
2023/07/20 10:35:16;;;;;;;56.20;1.60;;;;;;;;;;4993448;28;20462;-73
2023/07/20 10:37:53;;;;;;;55.83;1.50;;;;;;;;;;4993166;28;20482;-73
2023/07/20 10:40:30;;;;;;;55.93;1.70;;;;;;;;;;4993211;28;20455;-73
2023/07/20 10:42:59;;;;;;;55.77;1.80;;;;;;;;;;4990819;28;20497;-72
2023/07/20 10:45:35;;;;;;;56.00;1.60;;;;;;;;;;4993646;28;20847;-72
2023/07/20 10:48:04;;;;;;;55.90;1.47;;;;;;;;;;4993564;28;20458;-73
2023/07/20 10:50:34;;;;;;;55.77;1.63;;;;;;;;;;4993303;28;20450;-73
2023/07/20 10:53:12;;;;;;;55.80;1.50;;;;;;;;;;4993560;28;21175;-73
2023/07/20 10:55:40;;;;;;;55.97;1.93;;;;;;;;;;4993867;28;20462;-72
2023/07/20 10:58:08;;;;;;;55.57;1.70;;;;;;;;;;4993417;28;20447;-73
2023/07/20 11:00:36;;;;;;;55.47;1.83;;;;;;;;;;4993358;28;20459;-73
2023/07/20 11:03:03;;;;;;;55.67;1.50;;;;;;;;;;4993610;28;21006;-72
2023/07/20 11:05:34;;;;;;;55.60;1.60;;;;;;;;;;4993544;28;20466;-73
2023/07/20 11:08:01;;;;;;;55.37;1.50;;;;;;;;;;4993299;28;20509;-73
2023/07/20 11:10:29;;;;;;;55.80;1.70;;;;;;;;;;4993070;28;20477;-73
2023/07/20 11:13:14;;;;;;;55.67;1.70;;;;;;;;;;4992796;28;20467;-73
2023/07/20 11:15:49;;;;;;;55.60;1.73;;;;;;;;;;4993390;28;20465;-73
2023/07/20 11:18:16;;;;;;;55.50;1.40;;;;;;;;;;4993536;28;20955;-73
2023/07/20 11:20:43;;;;;;;56.00;1.97;;;;;;;;;;4992740;28;20450;-72
2023/07/20 11:23:11;;;;;;;55.70;1.60;;;;;;;;;;4992392;28;20495;-74
2023/07/20 11:25:39;;;;;;;55.60;1.57;;;;;;;;;;4991692;28;20457;-73
2023/07/20 11:28:08;;;;;;;55.13;1.63;;;;;;;;;;4992740;28;20459;-73
2023/07/20 11:30:35;;;;;;;55.20;1.80;;;;;;;;;;4992009;28;20478;-74
2023/07/20 11:33:04;;;;;;;55.37;1.50;;;;;;;;;;4992363;28;20909;-70
2023/07/20 11:35:31;;;;;;;55.50;1.77;;;;;;;;;;4992273;28;20446;-71
2023/07/20 11:37:58;;;;;;;55.30;1.60;;;;;;;;;;4992232;28;20473;-71
2023/07/20 11:40:25;;;;;;;55.60;1.83;;;;;;;;;;4992145;28;20451;-73
2023/07/20 11:42:52;;;;;;;55.27;1.53;;;;;;;;;;4992113;28;21017;-73
2023/07/20 11:45:20;;;;;;;55.37;1.50;;;;;;;;;;4991929;28;20494;-74
2023/07/20 11:47:47;;;;;;;55.30;1.80;;;;;;;;;;4992118;28;20446;-71
2023/07/20 11:50:16;;;;;;;59.43;1.87;;;;;;;;;;4991709;28;20973;-71
2023/07/20 11:52:44;;;;;;;55.37;1.60;;;;;;;;;;4991871;28;20474;-71
2023/07/20 11:55:12;;;;;;;55.37;1.60;;;;;;;;;;4992157;28;20457;-71
2023/07/20 11:57:39;;;;;;;55.07;1.40;;;;;;;;;;4991889;28;20462;-71
2023/07/20 12:00:11;;;;;;;55.27;1.60;;;;;;;;;;4991691;28;20458;-72
2023/07/20 12:02:39;;;;;;;54.97;1.70;;;;;;;;;;4987229;28;20495;-72
2023/07/20 12:05:07;;;;;;;55.80;1.67;;;;;;;;;;4991353;28;20509;-71
2023/07/20 12:07:38;;;;;;;55.10;1.80;;;;;;;;;;4991602;28;20546;-72
2023/07/20 12:10:06;;;;;;;54.90;1.60;;;;;;;;;;4991789;28;20450;-71
2023/07/20 12:12:33;;;;;;;54.87;1.50;;;;;;;;;;4991752;28;20463;-70
2023/07/20 12:15:13;;;;;;;54.83;1.50;;;;;;;;;;4991593;28;20454;-72
2023/07/20 12:17:43;;;;;;;54.87;1.77;;;;;;;;;;4991414;28;20454;-72
2023/07/20 12:20:11;;;;;;;55.00;1.80;;;;;;;;;;4991825;28;20447;-72
2023/07/20 12:22:41;;;;;;;54.83;1.67;;;;;;;;;;4991797;28;20490;-71
2023/07/20 12:25:09;;;;;;;55.20;1.70;;;;;;;;;;4991662;28;20451;-72
2023/07/20 12:27:38;;;;;;;54.90;1.70;;;;;;;;;;4991514;28;20514;-72
2023/07/20 12:30:06;;;;;;;54.87;1.60;;;;;;;;;;4991282;28;20510;-73
2023/07/20 12:32:33;;;;;;;55.10;1.83;;;;;;;;;;4991541;28;20464;-72
2023/07/20 12:35:01;;;;;;;54.73;1.60;;;;;;;;;;4991523;28;20453;-72
2023/07/20 12:37:28;;;;;;;55.10;1.87;;;;;;;;;;4991555;28;20450;-71
2023/07/20 12:39:56;;;;;;;55.27;1.83;;;;;;;;;;4994876;28;20820;-74
2023/07/20 12:42:23;;;;;;;55.10;1.70;;;;;;;;;;4994762;28;20495;-72
2023/07/20 12:44:51;;;;;;;54.50;1.93;;;;;;;;;;4995290;28;20467;-72
2023/07/20 12:47:18;;;;;;;54.70;1.70;;;;;;;;;;4995326;28;20517;-72
2023/07/20 12:49:46;;;;;;;54.70;1.70;;;;;;;;;;4994971;28;20943;-71
2023/07/20 12:52:14;;;;;;;55.20;2.20;;;;;;;;;;4994760;28;20478;-72
2023/07/20 12:54:41;;;;;;;56.00;2.00;;;;;;;;;;4994112;28;20520;-72
2023/07/20 12:57:09;;;;;;;54.57;1.70;;;;;;;;;;4994614;28;20959;-70
2023/07/20 12:59:36;;;;;;;54.73;1.70;;;;;;;;;;4995075;28;20452;-72
2023/07/20 13:02:04;;;;;;;54.90;1.60;;;;;;;;;;4994495;28;20494;-72
2023/07/20 13:04:31;;;;;;;54.47;1.50;;;;;;;;;;4995423;28;20477;-72
2023/07/20 13:06:59;;;;;;;54.77;1.67;;;;;;;;;;4994882;28;20458;-72
2023/07/20 13:09:26;;;;;;;54.80;1.90;;;;;;;;;;4994520;28;20447;-73
2023/07/20 13:11:53;;;;;;;54.83;1.87;;;;;;;;;;4994139;28;20471;-72
2023/07/20 13:14:21;;;;;;;54.37;1.40;;;;;;;;;;4994966;28;20825;-73
2023/07/20 13:16:49;;;;;;;54.90;1.80;;;;;;;;;;4994635;28;20458;-73
2023/07/20 13:19:16;;;;;;;54.23;1.70;;;;;;;;;;4994502;28;20451;-73
2023/07/20 13:21:43;;;;;;;54.80;1.60;;;;;;;;;;4994288;28;20495;-71
2023/07/20 13:24:10;;;;;;;54.60;1.70;;;;;;;;;;4994616;28;20829;-72
2023/07/20 13:26:37;;;;;;;54.57;1.60;;;;;;;;;;4994513;28;20455;-72
2023/07/20 13:29:04;;;;;;;54.43;1.60;;;;;;;;;;4994429;28;20458;-73
2023/07/20 13:31:33;;;;;;;54.60;1.70;;;;;;;;;;4994432;28;20466;-72
2023/07/20 13:34:00;;;;;;;54.77;1.90;;;;;;;;;;4994688;28;20451;-72
2023/07/20 13:36:27;;;;;;;54.80;1.60;;;;;;;;;;4994133;28;20447;-72
2023/07/20 13:38:54;;;;;;;54.77;1.87;;;;;;;;;;4993949;28;20462;-72
2023/07/20 13:41:21;;;;;;;55.07;1.80;;;;;;;;;;4994395;28;20845;-74
2023/07/20 13:43:48;;;;;;;55.23;1.63;;;;;;;;;;4994145;28;20494;-72
2023/07/20 13:46:16;;;;;;;55.07;1.60;;;;;;;;;;4994163;28;20447;-72
2023/07/20 13:48:45;;;;;;;54.70;1.40;;;;;;;;;;4993899;28;20553;-72
2023/07/20 13:51:12;;;;;;;54.80;1.60;;;;;;;;;;4993709;28;20455;-70
2023/07/20 13:53:39;;;;;;;54.67;1.50;;;;;;;;;;4993918;28;20879;-73
2023/07/20 13:56:06;;;;;;;54.80;1.70;;;;;;;;;;4994077;28;20472;-71
2023/07/20 13:58:34;;;;;;;55.50;2.00;;;;;;;;;;4994052;28;20808;-72
2023/07/20 14:01:01;;;;;;;54.73;1.53;;;;;;;;;;4993497;28;20455;-72
2023/07/20 14:03:28;;;;;;;54.60;1.60;;;;;;;;;;4993597;28;20482;-72
2023/07/20 14:05:57;;;;;;;54.80;1.73;;;;;;;;;;4993391;28;20447;-72
2023/07/20 14:08:24;;;;;;;54.80;1.70;;;;;;;;;;4993914;28;20458;-71
2023/07/20 14:10:51;;;;;;;54.90;1.70;;;;;;;;;;4993468;28;20447;-72
2023/07/20 14:13:18;;;;;;;54.57;1.70;;;;;;;;;;4993503;28;20829;-71
2023/07/20 14:15:46;;;;;;;54.47;1.70;;;;;;;;;;4993783;28;20457;-72
2023/07/20 14:18:13;;;;;;;54.83;1.80;;;;;;;;;;4993205;28;20463;-71
2023/07/20 14:20:40;;;;;;;54.67;1.47;;;;;;;;;;4992991;28;20451;-73
2023/07/20 14:23:09;;;;;;;54.70;1.50;;;;;;;;;;4993284;28;20548;-73
2023/07/20 14:25:36;;;;;;;54.80;1.60;;;;;;;;;;4993336;28;20462;-72
2023/07/20 14:28:03;;;;;;;54.70;1.60;;;;;;;;;;4993196;28;20839;-72
2023/07/20 14:30:31;;;;;;;54.77;1.60;;;;;;;;;;4993099;28;21002;-72
2023/07/20 14:32:58;;;;;;;54.37;1.60;;;;;;;;;;4993001;28;20471;-72
2023/07/20 14:35:25;;;;;;;54.73;1.50;;;;;;;;;;4993285;28;20451;-73